Time;durP1;ratioP1;P1;durP2;ratioP2;P2;SDS_P1;SDS_P2;PMS_P1;PMS_P2;Temp;Humidity;BMP_temperature;BMP_pressure;BME280_temperature;BME280_humidity;BME280_pressure;Samples;Min_cycle;Max_cycle;Signal;HPM_P1;HPM_P2
2022/09/09 00:02:20;;;;;;;3.63;1.65;;;20.20;99.90;;;;;;5071969;28;20486;-82
2022/09/09 00:04:59;;;;;;;2.78;1.70;;;20.10;99.90;;;;;;5072287;28;20103;-83
2022/09/09 00:07:46;;;;;;;4.00;1.70;;;20.10;99.90;;;;;;5072388;28;20074;-83
2022/09/09 00:10:36;;;;;;;4.35;1.65;;;20.00;99.90;;;;;;5072328;28;20031;-83
2022/09/09 00:13:20;;;;;;;2.25;1.65;;;19.90;99.90;;;;;;5072278;28;20082;-83
2022/09/09 00:16:12;;;;;;;4.75;1.80;;;19.90;99.90;;;;;;5077104;28;20103;-83
2022/09/09 00:19:36;;;;;;;5.35;1.83;;;19.80;99.90;;;;;;5092485;28;20031;-83
2022/09/09 00:22:23;;;;;;;3.55;1.98;;;19.80;99.90;;;;;;4990455;28;20111;-83
2022/09/09 00:24:55;;;;;;;6.65;1.80;;;19.60;99.90;;;;;;4990314;28;20037;-84
2022/09/09 00:27:44;;;;;;;3.50;1.88;;;19.60;99.90;;;;;;4990371;28;20121;-83
2022/09/09 00:30:22;;;;;;;5.22;1.90;;;19.60;99.90;;;;;;4989933;28;20376;-83
2022/09/09 00:32:49;;;;;;;2.67;1.77;;;19.50;99.90;;;;;;4990548;28;20077;-82
2022/09/09 00:35:25;;;;;;;5.30;2.15;;;19.60;99.90;;;;;;4990585;28;20112;-83
2022/09/09 00:37:56;;;;;;;6.47;2.10;;;19.40;99.90;;;;;;4990569;28;20491;-83
2022/09/09 00:40:29;;;;;;;6.00;1.92;;;19.50;99.90;;;;;;4990203;28;20048;-82
2022/09/09 00:43:27;;;;;;;3.67;1.95;;;19.20;99.90;;;;;;4990484;28;20050;-83
2022/09/09 00:46:19;;;;;;;5.75;1.63;;;19.20;99.90;;;;;;4982381;28;20038;-83
2022/09/09 00:48:53;;;;;;;3.70;1.60;;;19.20;99.90;;;;;;4985644;28;20034;-83
2022/09/09 00:51:44;;;;;;;2.47;1.60;;;19.20;99.90;;;;;;4990318;28;20037;-83
2022/09/09 00:54:17;;;;;;;2.90;1.60;;;19.20;99.90;;;;;;5071789;28;20021;-83
2022/09/09 00:56:53;;;;;;;2.20;1.40;;;19.10;99.90;;;;;;5072212;28;20121;-83
2022/09/09 00:59:40;;;;;;;3.38;1.42;;;19.10;99.90;;;;;;5071418;28;20078;-83
2022/09/09 01:02:29;;;;;;;2.33;1.50;;;19.00;99.90;;;;;;5071790;28;20033;-82
2022/09/09 01:05:01;;;;;;;4.05;1.88;;;19.00;99.90;;;;;;5071716;28;20485;-82
2022/09/09 01:07:26;;;;;;;3.97;1.70;;;19.00;99.90;;;;;;5071681;28;20028;-83
2022/09/09 01:10:00;;;;;;;4.95;1.73;;;19.10;99.90;;;;;;5071645;28;20024;-83
2022/09/09 01:12:43;;;;;;;5.00;1.60;;;18.90;99.90;;;;;;5071719;28;20025;-82
2022/09/09 01:15:24;;;;;;;3.78;1.88;;;18.90;99.90;;;;;;5072040;28;20039;-82
2022/09/09 01:17:53;;;;;;;5.88;1.77;;;18.90;99.90;;;;;;5112486;28;20023;-83
2022/09/09 01:20:26;;;;;;;5.20;1.58;;;18.90;99.90;;;;;;5111980;28;20106;-82
2022/09/09 01:22:52;;;;;;;3.03;1.70;;;18.80;99.90;;;;;;5112088;28;20038;-83
2022/09/09 01:26:08;;;;;;;3.10;1.90;;;18.80;99.90;;;;;;5112067;28;20019;-82
2022/09/09 01:28:36;;;;;;;2.72;1.77;;;18.80;99.90;;;;;;5111692;28;20020;-82
2022/09/09 01:31:05;;;;;;;4.43;1.50;;;18.80;99.90;;;;;;5094884;28;20127;-83
2022/09/09 01:33:31;;;;;;;4.32;1.73;;;18.80;99.90;;;;;;5091663;28;20073;-82
2022/09/09 01:36:06;;;;;;;3.60;1.60;;;18.80;99.90;;;;;;5091700;28;20107;-82
2022/09/09 01:38:33;;;;;;;4.50;1.52;;;18.70;99.90;;;;;;5091537;28;20487;-82
2022/09/09 01:40:59;;;;;;;4.60;1.77;;;18.70;99.90;;;;;;5092184;28;20031;-83
2022/09/09 01:43:26;;;;;;;3.33;1.60;;;18.70;99.90;;;;;;5095407;28;20036;-83
2022/09/09 01:45:55;;;;;;;3.30;1.60;;;18.60;99.90;;;;;;5095202;28;20047;-83
2022/09/09 01:48:23;;;;;;;4.93;1.63;;;18.70;99.90;;;;;;5095226;28;20480;-82
2022/09/09 01:50:49;;;;;;;4.90;1.80;;;18.70;99.90;;;;;;5095069;28;20030;-83
2022/09/09 01:53:17;;;;;;;5.30;1.92;;;18.60;99.90;;;;;;5095415;28;20016;-83
2022/09/09 01:56:36;;;;;;;3.72;1.90;;;18.60;99.90;;;;;;5095026;28;20028;-82
2022/09/09 01:59:18;;;;;;;7.20;1.83;;;18.60;99.90;;;;;;5095266;28;20353;-82
2022/09/09 02:02:18;;;;;;;3.72;1.85;;;18.60;99.90;;;;;;5095027;28;20384;-83
2022/09/09 02:04:49;;;;;;;4.50;2.10;;;18.50;99.90;;;;;;5094111;28;20043;-83
2022/09/09 02:07:41;;;;;;;4.07;1.90;;;18.50;99.90;;;;;;5095300;28;20032;-82
2022/09/09 02:10:24;;;;;;;4.00;1.80;;;18.40;99.90;;;;;;5094805;28;20028;-82
2022/09/09 02:13:00;;;;;;;2.85;1.92;;;18.20;99.90;;;;;;5094372;28;20024;-82
2022/09/09 02:15:40;;;;;;;3.42;2.00;;;18.30;99.90;;;;;;5097525;28;20031;-82
2022/09/09 02:18:08;;;;;;;3.38;2.08;;;18.30;99.90;;;;;;5115070;28;20530;-82
2022/09/09 02:20:37;;;;;;;3.60;2.17;;;18.30;99.90;;;;;;5115316;28;20543;-82
2022/09/09 02:23:05;;;;;;;2.70;1.80;;;18.30;99.90;;;;;;5114849;28;20108;-83
2022/09/09 02:25:30;;;;;;;5.53;2.05;;;18.20;99.90;;;;;;5114654;28;20020;-82
2022/09/09 02:28:00;;;;;;;3.33;1.90;;;18.00;99.90;;;;;;5114467;28;20081;-82
2022/09/09 02:30:29;;;;;;;4.80;2.00;;;18.10;99.90;;;;;;5103124;28;20073;-82
2022/09/09 02:32:59;;;;;;;5.97;2.13;;;18.20;99.90;;;;;;5093943;28;20047;-83
2022/09/09 02:35:27;;;;;;;2.55;2.03;;;18.10;99.90;;;;;;5094338;28;20028;-82
2022/09/09 02:38:00;;;;;;;3.45;1.92;;;18.00;99.90;;;;;;5093996;28;20140;-83
2022/09/09 02:40:25;;;;;;;2.97;2.03;;;18.00;99.90;;;;;;5093837;28;20483;-83
2022/09/09 02:42:54;;;;;;;3.55;2.17;;;18.00;99.90;;;;;;5093362;28;20078;-82
2022/09/09 02:45:24;;;;;;;3.90;1.83;;;17.80;99.90;;;;;;5094054;28;20020;-82
2022/09/09 02:48:29;;;;;;;3.97;2.15;;;17.70;99.90;;;;;;5094371;28;20020;-82
2022/09/09 02:51:17;;;;;;;4.35;2.25;;;17.70;99.90;;;;;;5094180;28;20073;-83
2022/09/09 02:53:54;;;;;;;3.42;2.15;;;17.60;99.90;;;;;;5093815;28;20028;-83
2022/09/09 02:56:24;;;;;;;2.63;2.08;;;17.60;99.90;;;;;;5093601;28;20419;-82
2022/09/09 02:58:51;;;;;;;3.80;2.30;;;17.80;99.90;;;;;;5094019;28;20068;-83
2022/09/09 03:01:17;;;;;;;2.95;2.28;;;17.70;99.90;;;;;;5093807;28;20817;-83
2022/09/09 03:03:44;;;;;;;4.47;2.20;;;17.70;99.90;;;;;;5093624;28;20031;-83
2022/09/09 03:06:11;;;;;;;3.90;1.98;;;17.60;99.90;;;;;;5093503;28;20022;-83
2022/09/09 03:08:37;;;;;;;4.03;2.08;;;17.60;99.90;;;;;;5093705;28;20024;-83
2022/09/09 03:11:03;;;;;;;3.80;1.95;;;17.60;99.90;;;;;;5093284;28;20021;-82
2022/09/09 03:13:29;;;;;;;5.53;2.10;;;17.60;99.90;;;;;;5075191;28;20500;-82
2022/09/09 03:15:55;;;;;;;3.90;2.00;;;17.50;99.90;;;;;;5100133;28;20040;-82
2022/09/09 03:18:20;;;;;;;6.68;2.03;;;17.40;99.90;;;;;;5113832;28;20020;-83
2022/09/09 03:20:50;;;;;;;3.63;2.10;;;17.60;99.90;;;;;;5113793;28;20027;-83
2022/09/09 03:23:16;;;;;;;4.70;2.03;;;17.40;99.90;;;;;;5113609;28;20035;-83
2022/09/09 03:25:49;;;;;;;4.97;2.00;;;17.50;99.90;;;;;;5113070;28;20108;-82
2022/09/09 03:28:15;;;;;;;4.60;2.10;;;17.40;99.90;;;;;;5113528;28;20491;-82
2022/09/09 03:30:41;;;;;;;3.63;2.25;;;17.50;99.90;;;;;;5099340;28;20059;-82
2022/09/09 03:33:06;;;;;;;4.88;2.40;;;17.50;99.90;;;;;;5093168;28;20496;-82
2022/09/09 03:35:32;;;;;;;4.63;2.63;;;17.40;99.90;;;;;;5093067;28;20549;-83
2022/09/09 03:37:57;;;;;;;5.20;2.25;;;17.40;99.90;;;;;;5092892;28;20035;-82
2022/09/09 03:40:23;;;;;;;4.68;2.03;;;17.20;99.90;;;;;;5092998;28;20496;-83
2022/09/09 03:42:49;;;;;;;5.95;2.40;;;17.20;99.90;;;;;;5092954;28;20067;-83
2022/09/09 03:45:14;;;;;;;8.35;2.50;;;17.10;99.90;;;;;;5092824;28;20492;-82
2022/09/09 03:47:40;;;;;;;3.33;2.20;;;17.00;99.90;;;;;;5093382;28;20020;-82
2022/09/09 03:50:09;;;;;;;7.68;2.50;;;17.00;99.90;;;;;;5092893;28;20480;-82
2022/09/09 03:52:40;;;;;;;6.00;2.47;;;17.10;99.90;;;;;;5092855;28;20491;-82
2022/09/09 03:55:07;;;;;;;4.00;2.58;;;17.20;99.90;;;;;;5092447;28;20023;-82
2022/09/09 03:57:34;;;;;;;4.70;2.10;;;17.20;99.90;;;;;;5092656;28;20077;-82
2022/09/09 04:00:03;;;;;;;4.10;2.15;;;17.20;99.90;;;;;;5092541;28;20024;-82
2022/09/09 04:02:28;;;;;;;7.35;2.33;;;17.00;99.90;;;;;;5092517;28;20107;-82
2022/09/09 04:04:54;;;;;;;4.20;1.92;;;17.10;99.90;;;;;;5092502;28;20453;-83
2022/09/09 04:07:19;;;;;;;4.22;2.00;;;17.00;99.90;;;;;;5092637;28;20023;-82
2022/09/09 04:09:45;;;;;;;7.30;2.08;;;16.90;99.90;;;;;;5092252;28;20020;-82
2022/09/09 04:12:13;;;;;;;4.78;2.00;;;17.00;99.90;;;;;;5092815;28;20392;-82
2022/09/09 04:14:38;;;;;;;6.35;2.05;;;16.90;99.90;;;;;;5092408;28;20106;-82
2022/09/09 04:17:06;;;;;;;6.40;2.25;;;16.90;99.90;;;;;;5092155;28;20107;-82
2022/09/09 04:19:32;;;;;;;5.78;2.00;;;16.80;99.90;;;;;;5092506;28;20480;-82
2022/09/09 04:21:58;;;;;;;5.05;2.20;;;16.80;99.90;;;;;;5092592;28;20071;-82
2022/09/09 04:24:24;;;;;;;5.63;2.20;;;16.80;99.90;;;;;;5091918;28;20097;-82
2022/09/09 04:26:50;;;;;;;3.00;2.30;;;16.80;99.90;;;;;;5092318;28;20107;-82
2022/09/09 04:29:16;;;;;;;4.57;1.80;;;16.80;99.90;;;;;;5092385;28;20491;-82
2022/09/09 04:31:41;;;;;;;6.70;2.20;;;16.70;99.90;;;;;;5091999;28;20131;-82
2022/09/09 04:34:09;;;;;;;7.72;2.22;;;16.60;99.90;;;;;;5092129;28;20046;-82
2022/09/09 04:36:35;;;;;;;5.15;2.50;;;16.60;99.90;;;;;;5092303;28;20507;-82
2022/09/09 04:39:01;;;;;;;3.10;2.00;;;16.60;99.90;;;;;;5091925;28;20024;-82
2022/09/09 04:41:27;;;;;;;3.22;2.10;;;16.50;99.90;;;;;;5091978;28;20381;-82
2022/09/09 04:43:53;;;;;;;7.22;2.10;;;16.50;99.90;;;;;;5092522;28;20154;-82
2022/09/09 04:46:20;;;;;;;3.53;2.10;;;16.60;99.90;;;;;;5092006;28;20483;-82
2022/09/09 04:48:45;;;;;;;6.25;2.13;;;16.70;99.90;;;;;;5092220;28;20016;-82
2022/09/09 04:51:13;;;;;;;4.97;2.30;;;16.70;99.90;;;;;;5091710;28;20492;-82
2022/09/09 04:53:42;;;;;;;3.22;2.00;;;16.60;99.90;;;;;;5091917;28;20035;-82
2022/09/09 04:56:11;;;;;;;4.72;2.20;;;16.60;99.90;;;;;;5092256;28;20029;-82
2022/09/09 04:58:38;;;;;;;5.50;2.55;;;16.60;99.90;;;;;;5092019;28;20028;-83
2022/09/09 05:01:17;;;;;;;4.50;2.10;;;16.60;99.90;;;;;;5092189;28;20027;-82
2022/09/09 05:03:44;;;;;;;4.00;2.30;;;16.60;99.90;;;;;;5091309;28;20111;-82
2022/09/09 05:06:13;;;;;;;3.58;2.10;;;16.60;99.90;;;;;;5090871;28;20017;-82
2022/09/09 05:08:40;;;;;;;6.18;2.33;;;16.80;99.90;;;;;;5091755;28;20024;-82
2022/09/09 05:11:24;;;;;;;8.65;2.35;;;16.60;99.90;;;;;;5090907;28;20055;-85
2022/09/09 05:13:51;;;;;;;3.78;1.95;;;16.80;99.90;;;;;;5091694;28;20032;-86
2022/09/09 05:16:17;;;;;;;3.40;2.22;;;16.80;99.90;;;;;;5092854;28;20085;-85
2022/09/09 05:18:44;;;;;;;4.82;2.10;;;16.70;99.90;;;;;;5095563;28;20035;-86
2022/09/09 05:21:11;;;;;;;3.78;2.00;;;16.70;99.90;;;;;;5095359;28;20021;-86
2022/09/09 05:23:37;;;;;;;7.97;1.98;;;16.70;99.90;;;;;;5095809;28;20035;-88
2022/09/09 05:26:04;;;;;;;4.43;2.20;;;16.70;99.90;;;;;;5095530;28;20540;-85
2022/09/09 05:28:30;;;;;;;5.05;2.17;;;16.70;99.90;;;;;;5095336;28;20036;-83
2022/09/09 05:31:12;;;;;;;6.35;2.53;;;16.70;99.90;;;;;;5095075;28;20039;-83
2022/09/09 05:33:40;;;;;;;6.55;2.10;;;16.70;99.90;;;;;;5095622;28;20061;-83
2022/09/09 05:36:08;;;;;;;4.85;2.20;;;16.80;99.90;;;;;;5095095;28;20012;-83
2022/09/09 05:38:34;;;;;;;3.08;2.10;;;16.90;99.90;;;;;;5095349;28;20086;-83
2022/09/09 05:41:02;;;;;;;5.18;2.00;;;16.90;99.90;;;;;;5094974;28;20473;-84
2022/09/09 05:43:29;;;;;;;7.28;2.30;;;16.80;99.90;;;;;;5095555;28;20032;-83
2022/09/09 05:46:09;;;;;;;4.60;2.00;;;16.90;99.90;;;;;;5095359;28;20020;-84
2022/09/09 05:48:37;;;;;;;3.72;2.10;;;17.10;99.90;;;;;;5095021;28;20106;-82
2022/09/09 05:51:04;;;;;;;5.50;2.30;;;17.10;99.90;;;;;;5094909;28;20579;-82
2022/09/09 05:53:39;;;;;;;5.68;1.80;;;17.20;99.90;;;;;;5095279;28;20472;-82
2022/09/09 05:56:10;;;;;;;5.85;2.10;;;17.30;99.90;;;;;;5095155;28;20035;-82
2022/09/09 05:58:36;;;;;;;6.25;2.38;;;17.30;99.90;;;;;;5095401;28;20028;-82
2022/09/09 06:01:08;;;;;;;7.78;2.40;;;17.50;99.90;;;;;;5093454;28;20381;-82
2022/09/09 06:03:38;;;;;;;7.00;2.10;;;17.60;99.90;;;;;;5094874;28;20031;-82
2022/09/09 06:06:07;;;;;;;5.70;2.70;;;17.80;99.90;;;;;;5094855;28;20056;-82
2022/09/09 06:08:34;;;;;;;6.05;2.35;;;17.60;99.90;;;;;;5094569;28;20030;-82
2022/09/09 06:11:08;;;;;;;6.18;2.47;;;17.70;99.90;;;;;;5094564;28;20467;-82
2022/09/09 06:13:36;;;;;;;6.70;2.30;;;17.60;99.90;;;;;;5094739;28;20031;-82
2022/09/09 06:16:02;;;;;;;7.07;2.63;;;17.60;99.90;;;;;;5094391;28;20042;-82
2022/09/09 06:18:29;;;;;;;7.00;2.60;;;17.50;99.90;;;;;;5094331;28;20032;-82
2022/09/09 06:20:55;;;;;;;4.75;2.03;;;17.60;99.90;;;;;;5094431;28;20107;-82
2022/09/09 06:23:21;;;;;;;5.55;2.60;;;17.60;99.90;;;;;;5094337;28;20036;-82
2022/09/09 06:25:47;;;;;;;6.30;2.88;;;17.60;99.90;;;;;;5094413;28;20082;-82
2022/09/09 06:28:13;;;;;;;5.75;2.72;;;17.70;99.90;;;;;;5094005;28;20073;-82
2022/09/09 06:30:39;;;;;;;9.02;2.63;;;17.70;99.90;;;;;;5093753;28;20032;-82
2022/09/09 06:33:05;;;;;;;10.25;2.60;;;17.80;99.90;;;;;;5093851;28;20039;-82
2022/09/09 06:35:30;;;;;;;9.60;2.13;;;17.90;99.90;;;;;;5094375;28;20028;-82
2022/09/09 06:37:58;;;;;;;5.63;2.50;;;17.80;99.90;;;;;;5092604;28;20026;-82
2022/09/09 06:40:24;;;;;;;6.45;2.50;;;18.00;99.90;;;;;;5086663;28;20111;-83
2022/09/09 06:42:50;;;;;;;5.53;2.38;;;18.00;99.90;;;;;;5088921;28;20060;-83
2022/09/09 06:45:16;;;;;;;4.50;2.20;;;18.00;99.90;;;;;;5094015;28;20063;-83
2022/09/09 06:47:42;;;;;;;5.45;2.00;;;18.00;99.90;;;;;;5094013;28;20512;-82
2022/09/09 06:50:08;;;;;;;4.20;2.05;;;18.00;99.90;;;;;;5093492;28;20107;-82
2022/09/09 06:52:33;;;;;;;7.78;2.15;;;18.10;99.90;;;;;;5092815;28;20537;-83
2022/09/09 06:54:59;;;;;;;4.30;2.10;;;18.20;99.90;;;;;;5093879;28;20046;-83
2022/09/09 06:57:25;;;;;;;4.43;2.17;;;18.20;99.90;;;;;;5094287;28;20016;-83
2022/09/09 06:59:50;;;;;;;4.50;2.15;;;18.30;99.90;;;;;;5093434;28;20028;-83
2022/09/09 07:02:16;;;;;;;5.28;2.35;;;18.40;99.90;;;;;;5092697;28;20036;-83
2022/09/09 07:04:43;;;;;;;5.70;2.50;;;18.40;99.90;;;;;;5093984;28;20016;-85
2022/09/09 07:07:09;;;;;;;6.10;2.40;;;18.60;99.90;;;;;;5093035;28;20107;-85
2022/09/09 07:09:35;;;;;;;7.50;2.63;;;18.80;99.90;;;;;;5093593;28;20078;-86
2022/09/09 07:12:01;;;;;;;5.75;2.28;;;18.90;99.90;;;;;;5093476;28;20393;-85
2022/09/09 07:14:27;;;;;;;4.65;1.90;;;18.80;99.90;;;;;;5093910;28;20020;-87
2022/09/09 07:16:52;;;;;;;6.18;2.10;;;18.90;99.90;;;;;;5093008;28;20028;-89
2022/09/09 07:19:18;;;;;;;4.57;2.10;;;19.10;99.90;;;;;;5093937;28;20488;-85
2022/09/09 07:21:44;;;;;;;4.47;2.28;;;19.30;99.90;;;;;;5092894;28;20070;-85
2022/09/09 07:24:10;;;;;;;5.15;2.20;;;19.30;99.90;;;;;;5092271;28;20407;-85
2022/09/09 07:26:38;;;;;;;4.18;2.00;;;19.40;99.90;;;;;;5112856;28;20023;-85
2022/09/09 07:29:04;;;;;;;5.05;1.42;;;19.50;99.90;;;;;;5106601;28;20036;-85
2022/09/09 07:31:33;;;;;;;3.65;1.40;;;19.60;99.90;;;;;;5092788;28;20122;-85
2022/09/09 07:34:00;;;;;;;3.17;1.33;;;19.70;99.90;;;;;;5092932;28;20111;-85
2022/09/09 07:36:28;;;;;;;2.47;1.50;;;19.80;99.90;;;;;;5092875;28;20016;-85
2022/09/09 07:38:59;;;;;;;6.70;1.50;;;19.90;99.90;;;;;;5095170;28;20140;-85
2022/09/09 07:41:24;;;;;;;3.08;1.70;;;19.90;99.90;;;;;;5113157;28;20100;-85
2022/09/09 07:43:51;;;;;;;4.53;1.60;;;20.00;99.90;;;;;;5113496;28;20059;-85
2022/09/09 07:46:21;;;;;;;6.85;1.50;;;20.00;99.90;;;;;;5094390;28;20024;-85
2022/09/09 07:48:53;;;;;;;3.95;1.50;;;20.10;99.90;;;;;;5098890;28;20024;-84
2022/09/09 07:51:31;;;;;;;4.93;1.20;;;20.20;99.90;;;;;;5098568;28;20039;-84
2022/09/09 07:53:59;;;;;;;4.85;1.80;;;20.30;99.90;;;;;;5084716;28;20035;-84
2022/09/09 07:56:26;;;;;;;6.10;2.80;;;20.30;99.90;;;;;;5072091;28;20037;-85
2022/09/09 07:58:54;;;;;;;5.05;1.60;;;20.40;99.90;;;;;;5072713;28;20052;-84
2022/09/09 08:01:32;;;;;;;5.68;1.35;;;20.60;99.90;;;;;;5071942;28;20025;-85
2022/09/09 08:04:01;;;;;;;3.08;1.45;;;20.60;99.90;;;;;;5072275;28;20036;-85
2022/09/09 08:06:33;;;;;;;4.07;1.50;;;20.50;99.90;;;;;;5072706;28;20024;-84
2022/09/09 08:08:59;;;;;;;3.15;1.50;;;20.60;99.90;;;;;;5074066;28;20037;-85
2022/09/09 08:11:26;;;;;;;5.60;1.60;;;20.70;99.90;;;;;;5092243;28;20081;-83
2022/09/09 08:13:52;;;;;;;3.47;1.60;;;20.80;99.90;;;;;;5103049;28;20028;-84
2022/09/09 08:16:27;;;;;;;3.85;1.70;;;20.90;99.90;;;;;;5102352;28;20039;-84
2022/09/09 08:18:54;;;;;;;3.30;1.40;;;21.00;99.90;;;;;;5074409;28;20425;-84
2022/09/09 08:21:31;;;;;;;6.53;1.75;;;21.20;99.90;;;;;;5092679;28;20104;-84
2022/09/09 08:23:59;;;;;;;5.97;1.48;;;21.40;99.90;;;;;;5092461;28;20115;-84
2022/09/09 08:26:31;;;;;;;4.95;1.98;;;21.30;99.90;;;;;;5091411;28;20073;-84
2022/09/09 08:28:58;;;;;;;3.63;1.70;;;21.30;99.90;;;;;;5098041;28;20104;-84
2022/09/09 08:31:30;;;;;;;4.97;1.50;;;21.50;99.90;;;;;;5091528;28;20040;-84
2022/09/09 08:33:59;;;;;;;4.10;1.40;;;22.00;99.90;;;;;;5091489;28;20043;-85
2022/09/09 08:36:26;;;;;;;3.97;1.55;;;22.20;99.90;;;;;;5091814;28;20077;-84
2022/09/09 08:38:54;;;;;;;5.05;1.25;;;22.50;99.90;;;;;;5092019;28;20371;-84
2022/09/09 08:41:45;;;;;;;3.53;1.50;;;22.80;99.90;;;;;;5092155;28;20085;-83
2022/09/09 08:44:31;;;;;;;4.32;1.30;;;23.00;99.90;;;;;;5080918;28;20032;-84
2022/09/09 08:47:03;;;;;;;2.20;1.50;;;23.10;99.90;;;;;;5088496;28;20016;-84
2022/09/09 08:49:48;;;;;;;3.58;1.30;;;23.50;99.90;;;;;;5112499;28;20039;-84
2022/09/09 08:52:21;;;;;;;3.42;1.20;;;23.50;99.90;;;;;;5103699;28;20093;-84
2022/09/09 08:54:47;;;;;;;4.75;1.50;;;23.50;99.90;;;;;;5096292;28;20024;-86
2022/09/09 08:57:26;;;;;;;2.83;1.02;;;23.40;99.90;;;;;;5095364;28;20024;-87
2022/09/09 08:59:54;;;;;;;4.03;1.20;;;23.50;99.90;;;;;;5095290;28;20028;-87
2022/09/09 09:02:58;;;;;;;3.25;1.25;;;23.40;99.90;;;;;;5095873;28;20028;-87
2022/09/09 09:06:10;;;;;;;2.95;0.90;;;23.20;99.90;;;;;;5006831;28;20037;-87
2022/09/09 09:09:07;;;;;;;3.55;1.08;;;23.30;99.90;;;;;;5021216;28;20030;-86
2022/09/09 09:11:42;;;;;;;1.58;0.90;;;23.60;99.90;;;;;;4994652;28;20026;-86
2022/09/09 09:14:14;;;;;;;3.40;1.00;;;23.70;99.90;;;;;;4996500;28;20553;-87
2022/09/09 09:16:52;;;;;;;3.53;1.35;;;23.70;99.90;;;;;;5006969;28;20064;-87
2022/09/09 09:19:18;;;;;;;3.67;0.90;;;23.90;99.90;;;;;;5012895;28;20030;-86
2022/09/09 09:21:50;;;;;;;2.65;0.98;;;23.80;99.90;;;;;;5000149;28;20042;-87
2022/09/09 09:24:42;;;;;;;2.85;1.00;;;24.00;99.90;;;;;;4995472;28;20045;-87
2022/09/09 09:27:14;;;;;;;3.13;1.10;;;24.00;99.90;;;;;;4999236;28;20038;-86
2022/09/09 09:29:43;;;;;;;3.40;1.05;;;23.70;99.90;;;;;;5015969;28;20030;-87
2022/09/09 09:32:15;;;;;;;4.20;1.10;;;23.90;99.90;;;;;;5012634;28;20054;-86
2022/09/09 09:34:40;;;;;;;2.00;0.95;;;24.30;99.90;;;;;;5007760;28;20032;-86
2022/09/09 09:37:19;;;;;;;3.83;1.00;;;25.30;99.90;;;;;;4997160;28;20533;-87
2022/09/09 09:39:45;;;;;;;3.42;0.90;;;29.80;99.90;;;;;;5010051;28;20673;-86
2022/09/09 09:42:14;;;;;;;1.95;0.80;;;31.40;99.90;;;;;;5063774;28;20048;-87
2022/09/09 09:44:41;;;;;;;4.25;1.00;;;27.90;99.90;;;;;;5095526;28;20036;-87
2022/09/09 09:47:17;;;;;;;1.50;0.90;;;26.90;99.90;;;;;;5094454;28;20020;-87
2022/09/09 09:49:56;;;;;;;2.28;0.90;;;25.90;99.90;;;;;;5100698;28;20032;-87
2022/09/09 09:52:30;;;;;;;2.47;1.10;;;25.10;99.90;;;;;;5095525;28;20020;-86
2022/09/09 09:54:58;;;;;;;3.05;0.90;;;24.90;99.90;;;;;;5094234;28;20024;-86
2022/09/09 09:57:32;;;;;;;2.55;1.00;;;27.10;99.90;;;;;;5094485;28;20105;-87
2022/09/09 10:00:16;;;;;;;2.67;0.93;;;29.70;99.90;;;;;;5095108;28;20025;-86
2022/09/09 10:02:43;;;;;;;3.30;1.10;;;26.10;99.90;;;;;;5092872;28;20028;-86
2022/09/09 10:05:25;;;;;;;3.10;0.93;;;29.60;99.90;;;;;;5094541;28;20031;-87
2022/09/09 10:08:04;;;;;;;3.40;1.20;;;35.40;99.90;;;;;;5094810;28;20086;-88
2022/09/09 10:10:46;;;;;;;2.22;1.02;;;38.00;99.90;;;;;;5094069;28;20114;-88
2022/09/09 10:13:21;;;;;;;2.38;0.90;;;38.80;99.90;;;;;;5102413;28;20027;-87
2022/09/09 10:16:08;;;;;;;2.08;0.88;;;40.40;99.90;;;;;;5098524;28;20032;-88
2022/09/09 10:19:01;;;;;;;3.05;0.90;;;41.00;99.90;;;;;;5082679;28;20027;-88
2022/09/09 10:22:02;;;;;;;2.83;0.88;;;40.50;99.90;;;;;;5094860;28;20047;-88
2022/09/09 10:25:05;;;;;;;4.15;1.23;;;39.50;99.90;;;;;;5012121;28;20042;-89
2022/09/09 10:27:44;;;;;;;3.00;0.90;;;39.10;99.90;;;;;;5007033;28;20633;-87
2022/09/09 10:30:29;;;;;;;2.13;0.80;;;34.20;99.90;;;;;;5015663;28;20054;-87
2022/09/09 10:33:09;;;;;;;2.15;1.00;;;35.30;99.90;;;;;;4994621;28;20093;-95
2022/09/09 10:35:44;;;;;;;2.20;0.90;;;38.80;99.90;;;;;;5009307;28;20038;-89
2022/09/09 10:38:18;;;;;;;2.17;0.82;;;40.80;99.90;;;;;;5010885;28;20507;-92
2022/09/09 10:40:53;;;;;;;1.58;0.75;;;40.10;99.90;;;;;;4999803;28;20036;-88
2022/09/09 10:43:50;;;;;;;4.40;0.80;;;38.50;99.90;;;;;;5012441;28;20462;-84
2022/09/09 10:46:40;;;;;;;4.18;1.10;;;36.50;99.90;;;;;;4999787;28;20053;-84
2022/09/09 10:49:05;;;;;;;1.95;0.70;;;34.40;99.90;;;;;;5003704;28;20473;-84
2022/09/09 10:51:40;;;;;;;3.88;1.02;;;34.60;99.90;;;;;;5011765;28;20080;-84
2022/09/09 10:54:11;;;;;;;1.98;0.80;;;35.30;99.90;;;;;;5012002;28;20575;-84
2022/09/09 10:56:39;;;;;;;2.40;0.90;;;37.60;99.90;;;;;;5011966;28;20026;-84
2022/09/09 10:59:20;;;;;;;3.88;2.00;;;32.20;99.90;;;;;;5011939;28;20077;-84
2022/09/09 11:01:55;;;;;;;3.00;1.15;;;32.30;99.90;;;;;;5055060;28;20469;-84
2022/09/09 11:04:30;;;;;;;1.33;0.80;;;31.20;99.90;;;;;;5073905;28;20063;-84
2022/09/09 11:06:56;;;;;;;2.97;1.08;;;30.50;99.90;;;;;;5073485;28;20550;-85
2022/09/09 11:09:28;;;;;;;2.90;1.05;;;36.50;99.90;;;;;;5073315;28;20024;-85
2022/09/09 11:11:55;;;;;;;3.13;0.90;;;38.90;99.90;;;;;;5073640;28;20116;-84
2022/09/09 11:14:38;;;;;;;5.13;1.15;;;39.80;99.90;;;;;;5072472;28;20473;-84
2022/09/09 11:17:33;;;;;;;2.75;0.90;;;40.20;99.90;;;;;;5089604;28;20024;-85
2022/09/09 11:19:59;;;;;;;2.55;0.82;;;40.50;99.90;;;;;;5093513;28;20021;-85
2022/09/09 11:22:30;;;;;;;1.58;0.70;;;40.70;99.90;;;;;;5093369;28;20046;-85
2022/09/09 11:25:18;;;;;;;4.45;0.80;;;42.80;99.90;;;;;;5093258;28;20054;-85
2022/09/09 11:28:03;;;;;;;1.25;0.80;;;40.70;99.90;;;;;;5093339;28;20024;-85
2022/09/09 11:30:47;;;;;;;3.28;0.70;;;38.00;99.90;;;;;;5093354;28;20024;-85
2022/09/09 11:33:51;;;;;;;4.03;1.10;;;40.50;99.90;;;;;;5093551;28;20036;-85
2022/09/09 11:36:41;;;;;;;1.95;1.00;;;42.40;99.90;;;;;;5093171;28;20483;-85
2022/09/09 11:39:31;;;;;;;1.70;0.60;;;43.40;99.90;;;;;;5092874;28;20024;-85
2022/09/09 11:42:19;;;;;;;2.17;1.00;;;42.70;99.90;;;;;;5092936;28;20069;-85
2022/09/09 11:44:45;;;;;;;1.35;0.55;;;42.40;99.90;;;;;;5093585;28;20027;-85
2022/09/09 11:47:26;;;;;;;2.45;0.68;;;43.10;99.90;;;;;;5093028;28;20105;-85
2022/09/09 11:49:52;;;;;;;2.55;0.90;;;43.50;99.90;;;;;;5092999;28;20028;-85
2022/09/09 11:52:35;;;;;;;2.00;0.90;;;40.00;99.90;;;;;;5093125;28;20103;-85
2022/09/09 11:55:10;;;;;;;2.13;0.80;;;42.00;99.90;;;;;;5092902;28;20559;-85
2022/09/09 11:57:36;;;;;;;1.40;0.75;;;43.00;99.90;;;;;;5092669;28;20054;-84
2022/09/09 12:00:04;;;;;;;1.27;0.70;;;43.20;99.90;;;;;;5093273;28;20052;-85
2022/09/09 12:02:34;;;;;;;1.58;0.68;;;41.00;99.90;;;;;;5092618;28;20063;-85
2022/09/09 12:05:05;;;;;;;1.88;0.90;;;39.90;99.90;;;;;;5092589;28;20024;-85
2022/09/09 12:07:55;;;;;;;2.53;1.00;;;37.40;99.90;;;;;;5092478;28;20038;-85
2022/09/09 12:10:32;;;;;;;2.35;0.88;;;35.20;99.90;;;;;;5092597;28;20020;-84
2022/09/09 12:13:21;;;;;;;1.80;0.88;;;39.40;99.90;;;;;;5092481;28;20024;-85
2022/09/09 12:15:56;;;;;;;2.10;0.90;;;40.80;99.90;;;;;;5092795;28;20017;-85
2022/09/09 12:18:25;;;;;;;1.85;0.73;;;41.00;99.90;;;;;;5092489;28;20062;-85
2022/09/09 12:21:02;;;;;;;1.40;0.88;;;41.40;99.90;;;;;;5092366;28;20020;-85
2022/09/09 12:23:42;;;;;;;2.53;1.20;;;41.50;99.90;;;;;;5093056;28;20106;-85
2022/09/09 12:26:24;;;;;;;1.35;0.68;;;41.20;99.90;;;;;;5092311;28;20032;-85
2022/09/09 12:29:09;;;;;;;1.80;0.70;;;42.60;99.90;;;;;;5092436;28;20039;-85
2022/09/09 12:31:52;;;;;;;2.35;0.90;;;39.50;99.90;;;;;;5072075;28;20051;-84
2022/09/09 12:34:45;;;;;;;1.45;0.73;;;38.90;99.90;;;;;;5072194;28;20449;-85
2022/09/09 12:37:34;;;;;;;1.80;0.70;;;39.50;99.90;;;;;;5071818;28;20504;-85
2022/09/09 12:40:03;;;;;;;2.33;0.80;;;42.70;99.90;;;;;;5072031;28;20040;-85
2022/09/09 12:42:29;;;;;;;1.38;0.80;;;42.30;99.90;;;;;;5071971;28;20082;-85
2022/09/09 12:45:16;;;;;;;1.60;1.02;;;40.80;99.90;;;;;;5072360;28;20116;-85
2022/09/09 12:47:45;;;;;;;1.30;0.57;;;40.20;99.90;;;;;;5072439;28;20029;-85
2022/09/09 12:50:21;;;;;;;1.98;0.90;;;41.00;99.90;;;;;;5071748;28;20473;-85
2022/09/09 12:52:49;;;;;;;1.25;0.70;;;39.70;99.90;;;;;;5071925;28;20024;-85
2022/09/09 12:55:21;;;;;;;3.10;0.70;;;41.10;99.90;;;;;;5072272;28;20048;-85
2022/09/09 12:57:52;;;;;;;2.33;0.70;;;41.10;99.90;;;;;;5072028;28;20037;-85
2022/09/09 13:00:22;;;;;;;1.70;0.70;;;41.90;99.90;;;;;;5072258;28;20016;-85
2022/09/09 13:02:50;;;;;;;2.03;0.70;;;41.90;99.90;;;;;;5071940;28;20040;-85
2022/09/09 13:05:27;;;;;;;2.03;0.65;;;40.90;99.90;;;;;;5071936;28;20052;-85
2022/09/09 13:08:04;;;;;;;2.05;0.70;;;38.20;99.90;;;;;;5072235;28;20119;-85
2022/09/09 13:10:41;;;;;;;1.92;0.88;;;39.50;99.90;;;;;;5071997;28;20419;-85
2022/09/09 13:13:19;;;;;;;1.80;0.77;;;34.70;99.90;;;;;;5071756;28;20027;-85
2022/09/09 13:15:53;;;;;;;1.95;0.98;;;34.50;99.90;;;;;;5077167;28;20020;-84
2022/09/09 13:18:24;;;;;;;2.03;0.70;;;34.50;99.90;;;;;;5092196;28;20047;-85
2022/09/09 13:20:51;;;;;;;2.22;0.70;;;34.40;99.90;;;;;;5091501;28;20498;-84